Time;durP1;ratioP1;P1;durP2;ratioP2;P2;SDS_P1;SDS_P2;PMS_P1;PMS_P2;Temp;Humidity;BMP_temperature;BMP_pressure;BME280_temperature;BME280_humidity;BME280_pressure;Samples;Min_cycle;Max_cycle;Signal;HPM_P1;HPM_P2
2022/01/28 00:01:06;;;;;;;89.97;53.03;;;6.50;99.90;;;;;;4941844;29;20193;-86
2022/01/28 00:03:34;;;;;;;94.57;69.75;;;6.50;99.90;;;;;;4941585;29;20228;-86
2022/01/28 00:05:59;;;;;;;93.22;66.22;;;6.40;99.90;;;;;;4941213;29;20207;-86
2022/01/28 00:08:26;;;;;;;95.13;61.67;;;6.50;99.90;;;;;;4942604;29;20263;-86
2022/01/28 00:10:52;;;;;;;85.18;53.97;;;6.50;99.90;;;;;;4942141;29;20404;-86
2022/01/28 00:13:24;;;;;;;93.80;54.78;;;6.50;99.90;;;;;;4941193;29;20172;-86
2022/01/28 00:39:37;;;;;;;92.93;61.60;;;6.50;99.90;;;;;;4941768;29;20196;-86
2022/01/28 00:42:03;;;;;;;87.95;62.63;;;6.50;99.90;;;;;;4940746;29;20172;-87
2022/01/28 00:44:32;;;;;;;87.15;53.33;;;6.50;99.90;;;;;;4941568;29;20185;-87
2022/01/28 00:46:58;;;;;;;86.75;50.55;;;6.50;99.90;;;;;;4940265;29;20292;-86
2022/01/28 00:49:24;;;;;;;88.37;51.60;;;6.50;99.90;;;;;;4940860;29;20189;-86
2022/01/28 00:51:50;;;;;;;90.00;53.47;;;6.40;99.90;;;;;;4940785;29;20184;-86
2022/01/28 00:54:18;;;;;;;81.70;37.93;;;6.40;99.90;;;;;;4941152;29;20169;-86
2022/01/28 00:56:44;;;;;;;81.85;34.50;;;6.40;99.90;;;;;;4940708;29;20235;-86
2022/01/28 00:59:11;;;;;;;82.22;32.78;;;6.40;99.90;;;;;;4939678;29;20183;-86
2022/01/28 01:01:39;;;;;;;86.22;33.95;;;6.40;99.90;;;;;;4940785;29;20196;-86
2022/01/28 01:04:05;;;;;;;78.03;34.25;;;6.30;99.90;;;;;;4941607;29;20683;-87
2022/01/28 01:06:34;;;;;;;80.55;31.02;;;6.30;99.90;;;;;;4939549;29;20279;-86
2022/01/28 01:09:00;;;;;;;81.00;37.03;;;6.30;99.90;;;;;;4940089;29;20164;-86
2022/01/28 01:11:27;;;;;;;106.22;70.25;;;6.30;99.90;;;;;;4941080;29;20164;-86
2022/01/28 01:13:54;;;;;;;93.30;56.25;;;6.30;99.90;;;;;;4940078;29;20580;-87
2022/01/28 01:16:29;;;;;;;84.93;27.08;;;6.30;99.90;;;;;;4940924;29;20243;-86
2022/01/28 01:21:30;;;;;;;77.63;27.23;;;6.20;99.90;;;;;;4944961;29;20279;-86
2022/01/28 01:23:58;;;;;;;82.05;23.77;;;6.20;99.90;;;;;;4943927;29;20196;-87
2022/01/28 01:26:34;;;;;;;83.65;28.83;;;6.10;99.90;;;;;;4943257;29;20172;-86
2022/01/28 01:29:01;;;;;;;81.15;38.90;;;6.10;99.90;;;;;;4944491;29;20212;-86
2022/01/28 01:31:29;;;;;;;79.32;31.58;;;6.00;99.90;;;;;;4944714;29;20594;-86
2022/01/28 01:34:03;;;;;;;91.07;53.17;;;6.00;99.90;;;;;;4944304;29;20179;-86
2022/01/28 01:36:31;;;;;;;84.80;40.15;;;5.90;99.90;;;;;;4944349;29;20185;-86
2022/01/28 01:38:57;;;;;;;82.47;29.48;;;5.90;99.90;;;;;;4945377;29;20192;-86
2022/01/28 01:41:33;;;;;;;80.00;24.63;;;5.90;99.90;;;;;;4944715;29;20219;-87
2022/01/28 01:44:04;;;;;;;90.78;39.00;;;5.90;99.90;;;;;;4943514;29;20171;-85
2022/01/28 01:52:03;;;;;;;78.63;23.48;;;5.80;99.90;;;;;;4945594;29;20704;-84
2022/01/28 01:54:33;;;;;;;75.60;22.58;;;5.90;99.90;;;;;;4945260;29;20600;-85
2022/01/28 01:57:01;;;;;;;75.47;24.75;;;5.80;99.90;;;;;;4944631;29;20173;-84
2022/01/28 01:59:30;;;;;;;79.97;29.50;;;5.80;99.90;;;;;;4944061;29;20180;-86
2022/01/28 02:01:56;;;;;;;77.45;28.33;;;5.70;99.90;;;;;;4943738;29;20247;-86
2022/01/28 02:04:25;;;;;;;79.50;25.73;;;5.70;99.90;;;;;;4944003;29;20216;-86
2022/01/28 02:06:55;;;;;;;78.70;27.15;;;5.60;99.90;;;;;;4943560;29;20655;-86
2022/01/28 02:09:21;;;;;;;78.15;25.25;;;5.70;99.90;;;;;;4945157;29;20529;-86
2022/01/28 02:11:47;;;;;;;75.53;25.10;;;5.60;99.90;;;;;;4944849;29;20168;-86
2022/01/28 02:14:12;;;;;;;76.97;19.97;;;5.60;99.90;;;;;;4942897;29;20176;-84
2022/01/28 02:16:40;;;;;;;82.40;27.00;;;5.50;99.90;;;;;;4944294;29;20630;-85
2022/01/28 02:19:06;;;;;;;77.57;25.05;;;5.50;99.90;;;;;;4943634;29;20176;-85
2022/01/28 02:21:47;;;;;;;75.13;28.77;;;5.50;99.90;;;;;;4944425;29;20195;-85
2022/01/28 02:24:17;;;;;;;77.55;24.52;;;5.50;99.90;;;;;;4946132;29;20412;-85
2022/01/28 02:26:43;;;;;;;90.57;31.67;;;5.40;99.90;;;;;;4945542;29;20199;-85
2022/01/28 02:29:13;;;;;;;86.60;32.30;;;5.40;99.90;;;;;;4945100;29;20172;-86
2022/01/28 02:31:39;;;;;;;87.82;33.33;;;5.30;99.90;;;;;;4943359;29;20176;-86
2022/01/28 02:34:06;;;;;;;83.72;30.48;;;5.30;99.90;;;;;;4945025;29;20165;-85
2022/01/28 02:36:35;;;;;;;83.38;39.67;;;5.30;99.90;;;;;;4944141;29;20176;-85
2022/01/28 02:39:04;;;;;;;76.60;28.20;;;5.30;99.90;;;;;;4944755;29;20200;-85
2022/01/28 02:41:35;;;;;;;80.28;30.83;;;5.30;99.90;;;;;;4945351;29;20256;-85
2022/01/28 02:44:17;;;;;;;83.45;31.50;;;5.30;99.90;;;;;;4945700;29;20179;-85
2022/01/28 02:47:01;;;;;;;87.40;39.72;;;5.30;99.90;;;;;;4945080;29;20606;-84
2022/01/28 02:49:35;;;;;;;83.70;30.15;;;5.20;99.90;;;;;;4944018;29;20188;-85
2022/01/28 02:52:02;;;;;;;86.47;33.20;;;5.10;99.90;;;;;;4945579;29;20149;-85
2022/01/28 02:54:29;;;;;;;81.47;31.08;;;5.10;99.90;;;;;;4945672;29;20660;-85
2022/01/28 02:57:05;;;;;;;83.13;36.45;;;5.10;99.90;;;;;;4943706;29;20740;-85
2022/01/28 02:59:30;;;;;;;79.95;34.80;;;5.10;99.90;;;;;;4943783;29;20244;-85
2022/01/28 03:01:56;;;;;;;79.50;34.50;;;5.10;99.90;;;;;;4944996;29;20695;-85
2022/01/28 03:07:06;;;;;;;86.43;38.28;;;5.10;99.90;;;;;;4944952;29;20163;-85
2022/01/28 03:12:19;;;;;;;85.80;41.17;;;5.10;99.90;;;;;;4944346;29;20219;-85
2022/01/28 03:17:52;;;;;;;102.13;64.93;;;5.10;99.90;;;;;;4944414;29;20173;-85
2022/01/28 03:20:35;;;;;;;95.80;52.35;;;5.00;99.90;;;;;;4944374;29;20189;-85
2022/01/28 03:23:01;;;;;;;91.50;56.08;;;5.10;99.90;;;;;;4944042;29;20227;-84
2022/01/28 03:25:37;;;;;;;95.73;64.07;;;5.10;99.90;;;;;;4945007;29;20252;-85
2022/01/28 03:28:04;;;;;;;84.82;56.03;;;5.00;99.90;;;;;;4943081;29;20172;-85
2022/01/28 03:30:29;;;;;;;98.57;68.50;;;5.00;99.90;;;;;;4942668;29;20176;-85
2022/01/28 03:32:55;;;;;;;93.33;65.97;;;5.00;99.90;;;;;;4944491;29;20164;-85
2022/01/28 03:35:21;;;;;;;92.77;63.33;;;5.00;99.90;;;;;;4944091;29;20727;-86
2022/01/28 03:37:47;;;;;;;96.03;54.73;;;5.00;99.90;;;;;;4943570;29;20192;-85
2022/01/28 03:40:17;;;;;;;93.67;67.73;;;5.00;99.90;;;;;;4944136;29;20192;-85
2022/01/28 03:42:46;;;;;;;84.18;51.63;;;5.00;99.90;;;;;;4942664;29;20404;-84
2022/01/28 03:45:12;;;;;;;82.18;44.75;;;5.00;99.90;;;;;;4944055;29;20192;-85
2022/01/28 03:47:38;;;;;;;85.37;41.03;;;5.00;99.90;;;;;;4943685;29;20239;-85
2022/01/28 03:50:06;;;;;;;83.13;42.30;;;5.00;99.90;;;;;;4943959;29;20715;-85
2022/01/28 03:52:32;;;;;;;86.85;42.97;;;5.00;99.90;;;;;;4943484;29;20169;-86
2022/01/28 03:54:58;;;;;;;84.30;37.10;;;5.10;99.90;;;;;;4943134;29;20275;-85
2022/01/28 03:57:24;;;;;;;79.33;31.37;;;5.10;99.90;;;;;;4943663;29;20210;-85
2022/01/28 03:59:49;;;;;;;87.47;35.53;;;5.10;99.90;;;;;;4942484;29;20177;-85
2022/01/28 04:02:22;;;;;;;86.63;37.30;;;5.10;99.90;;;;;;4944494;29;20239;-85
2022/01/28 04:12:52;;;;;;;77.78;34.17;;;5.10;99.90;;;;;;4944788;29;20716;-85
2022/01/28 04:17:51;;;;;;;77.93;29.83;;;5.10;99.90;;;;;;4944504;29;20652;-85
2022/01/28 04:20:17;;;;;;;78.97;30.45;;;5.10;99.90;;;;;;4943934;29;20196;-85
2022/01/28 04:22:43;;;;;;;74.57;24.50;;;5.10;99.90;;;;;;4942698;29;20184;-85
2022/01/28 04:25:09;;;;;;;77.90;28.70;;;5.10;99.90;;;;;;4942165;29;20188;-85
2022/01/28 04:27:35;;;;;;;78.90;29.90;;;5.00;99.90;;;;;;4942413;29;20168;-85
2022/01/28 04:30:01;;;;;;;81.33;26.37;;;5.00;99.90;;;;;;4942919;29;20179;-85
2022/01/28 04:32:28;;;;;;;81.20;30.40;;;5.00;99.90;;;;;;4941820;29;20408;-85
2022/01/28 04:34:55;;;;;;;75.82;20.70;;;5.00;99.90;;;;;;4942597;29;20519;-85
2022/01/28 04:37:39;;;;;;;78.50;24.25;;;5.00;99.90;;;;;;4943335;29;20161;-85
2022/01/28 04:47:36;;;;;;;82.00;24.83;;;5.00;99.90;;;;;;4943625;29;20153;-85
2022/01/28 04:50:28;;;;;;;76.70;23.98;;;4.90;99.90;;;;;;4942081;29;20356;-85
2022/01/28 04:55:41;;;;;;;76.30;23.90;;;4.90;99.90;;;;;;4942594;29;20669;-85
2022/01/28 05:06:10;;;;;;;76.63;24.10;;;4.80;99.90;;;;;;4942909;29;20188;-85
2022/01/28 05:16:24;;;;;;;77.60;27.05;;;4.70;99.90;;;;;;4943676;29;20184;-85
2022/01/28 05:27:02;;;;;;;75.53;25.83;;;4.70;99.90;;;;;;4942915;29;20141;-85
2022/01/28 05:29:41;;;;;;;79.22;24.65;;;4.70;99.90;;;;;;4942026;29;20173;-85
2022/01/28 05:32:10;;;;;;;76.13;24.55;;;4.60;99.90;;;;;;4941342;29;20177;-85
2022/01/28 05:34:36;;;;;;;78.68;27.38;;;4.60;99.90;;;;;;4940605;29;20240;-84
2022/01/28 05:37:06;;;;;;;95.03;26.92;;;4.60;99.90;;;;;;4941072;29;20320;-85
2022/01/28 05:39:32;;;;;;;77.75;23.55;;;4.60;99.90;;;;;;4941362;29;20202;-85
2022/01/28 05:41:57;;;;;;;81.73;29.33;;;4.60;99.90;;;;;;4941455;29;20243;-85
2022/01/28 05:44:27;;;;;;;76.97;28.30;;;4.60;99.90;;;;;;4942772;29;20870;-85
2022/01/28 05:47:01;;;;;;;80.03;26.85;;;4.60;99.90;;;;;;4941169;29;20194;-85
2022/01/28 05:49:27;;;;;;;78.72;24.05;;;4.60;99.90;;;;;;4942982;29;20523;-85
2022/01/28 05:51:52;;;;;;;80.87;27.40;;;4.50;99.90;;;;;;4941240;29;20181;-83
2022/01/28 05:54:18;;;;;;;76.77;27.53;;;4.50;99.90;;;;;;4942467;29;21483;-85
2022/01/28 05:56:44;;;;;;;84.17;32.97;;;4.50;99.90;;;;;;4942512;29;20169;-84
2022/01/28 05:59:16;;;;;;;80.97;33.67;;;4.50;99.90;;;;;;4942120;29;20692;-85
2022/01/28 06:01:45;;;;;;;81.85;34.25;;;4.50;99.90;;;;;;4942325;29;20196;-84
2022/01/28 06:04:10;;;;;;;78.53;31.63;;;4.60;99.90;;;;;;4941034;29;20172;-85
2022/01/28 06:06:38;;;;;;;83.53;41.20;;;4.50;99.90;;;;;;4942872;29;20196;-85
2022/01/28 06:09:04;;;;;;;83.35;42.25;;;4.50;99.90;;;;;;4945581;29;20684;-84
2022/01/28 06:11:29;;;;;;;83.67;48.23;;;4.50;99.90;;;;;;4944198;29;20168;-85
2022/01/28 06:14:01;;;;;;;86.80;57.77;;;4.50;99.90;;;;;;4945488;29;20750;-85
2022/01/28 06:16:35;;;;;;;82.80;46.08;;;4.40;99.90;;;;;;4945363;29;20168;-84
2022/01/28 06:19:02;;;;;;;87.55;42.05;;;4.50;99.90;;;;;;4944888;29;20502;-84
2022/01/28 06:21:28;;;;;;;85.72;48.15;;;4.50;99.90;;;;;;4943405;29;20205;-84
2022/01/28 06:23:55;;;;;;;92.50;43.10;;;4.50;99.90;;;;;;4942915;29;20272;-85
2022/01/28 06:26:21;;;;;;;91.03;40.95;;;4.50;99.90;;;;;;4944594;29;20232;-84
2022/01/28 06:29:16;;;;;;;89.18;47.35;;;4.50;99.90;;;;;;4943136;29;20172;-84
2022/01/28 06:31:45;;;;;;;84.95;42.40;;;4.50;99.90;;;;;;4943727;29;20552;-85
2022/01/28 06:34:10;;;;;;;90.53;50.53;;;4.50;99.90;;;;;;4943737;29;20220;-85
2022/01/28 06:36:44;;;;;;;98.63;72.60;;;4.50;99.90;;;;;;4943296;29;20230;-84
2022/01/28 06:39:12;;;;;;;99.28;74.65;;;4.40;99.90;;;;;;4944106;29;20495;-84
2022/01/28 06:41:41;;;;;;;96.68;72.03;;;4.40;99.90;;;;;;4944985;29;20206;-84
2022/01/28 06:44:06;;;;;;;107.47;78.25;;;4.50;99.90;;;;;;4945056;29;20165;-85
2022/01/28 06:46:35;;;;;;;92.50;74.40;;;4.50;99.90;;;;;;4943752;29;20195;-85
2022/01/28 06:49:06;;;;;;;93.18;64.22;;;4.50;99.90;;;;;;4945532;29;20185;-84
2022/01/28 06:51:38;;;;;;;112.72;100.55;;;4.50;99.90;;;;;;4945440;29;20361;-85
2022/01/28 06:54:04;;;;;;;93.93;74.78;;;4.50;99.90;;;;;;4944008;29;20175;-84
2022/01/28 06:56:29;;;;;;;99.20;70.57;;;4.50;99.90;;;;;;4943290;29;20176;-85
2022/01/28 06:58:58;;;;;;;106.67;74.23;;;4.50;99.90;;;;;;4944160;29;20259;-85
2022/01/28 07:01:24;;;;;;;94.40;73.75;;;4.50;99.90;;;;;;4943543;29;20197;-84
2022/01/28 07:04:03;;;;;;;102.20;87.07;;;4.50;99.90;;;;;;4941962;29;20236;-84
2022/01/28 07:06:29;;;;;;;105.25;83.00;;;4.50;99.90;;;;;;4941782;29;20515;-85
2022/01/28 07:08:58;;;;;;;94.80;64.93;;;4.50;99.90;;;;;;4942002;29;20263;-85
2022/01/28 07:11:26;;;;;;;98.63;80.53;;;4.50;99.90;;;;;;4942558;29;20416;-85
2022/01/28 07:13:52;;;;;;;102.72;81.43;;;4.50;99.90;;;;;;4941926;29;20211;-86
2022/01/28 07:16:18;;;;;;;113.90;99.80;;;4.50;99.90;;;;;;4942483;29;20188;-85
2022/01/28 07:18:43;;;;;;;98.03;79.50;;;4.40;99.90;;;;;;4942965;29;20175;-86
2022/01/28 07:21:14;;;;;;;99.63;83.53;;;4.40;99.90;;;;;;4940832;29;20197;-85
2022/01/28 07:23:40;;;;;;;97.88;75.28;;;4.40;99.90;;;;;;4941599;29;20163;-85
2022/01/28 07:26:06;;;;;;;109.03;94.73;;;4.40;99.90;;;;;;4946411;29;20197;-85
2022/01/28 07:28:34;;;;;;;96.20;82.37;;;4.40;99.90;;;;;;4947703;29;20400;-84
2022/01/28 07:31:00;;;;;;;99.13;75.78;;;4.40;99.90;;;;;;4948622;29;20178;-84
2022/01/28 07:33:25;;;;;;;97.97;73.97;;;4.50;99.90;;;;;;4942901;29;20252;-84
2022/01/28 07:35:54;;;;;;;92.70;66.07;;;4.50;99.90;;;;;;4945303;29;20199;-86
2022/01/28 07:38:19;;;;;;;97.70;69.95;;;4.50;99.90;;;;;;4944373;29;20552;-86
2022/01/28 07:40:45;;;;;;;107.90;91.60;;;4.50;99.90;;;;;;4945616;29;20197;-84
2022/01/28 07:43:14;;;;;;;106.70;92.00;;;4.50;99.90;;;;;;4927639;29;20252;-84
2022/01/28 07:45:39;;;;;;;97.53;83.95;;;4.50;99.90;;;;;;5030153;23;20707;-85
2022/01/28 07:48:05;;;;;;;95.67;81.33;;;4.60;99.90;;;;;;4941509;29;20168;-85
2022/01/28 07:50:31;;;;;;;104.17;90.00;;;4.50;99.90;;;;;;4941944;29;20175;-84
2022/01/28 07:52:57;;;;;;;100.57;84.23;;;4.50;99.90;;;;;;4941703;29;20173;-85
2022/01/28 07:55:22;;;;;;;92.90;64.87;;;4.50;99.90;;;;;;4942726;29;20199;-85
2022/01/28 07:57:48;;;;;;;94.83;74.10;;;4.50;99.90;;;;;;4942545;29;20168;-85
2022/01/28 08:00:15;;;;;;;106.60;71.60;;;4.60;99.90;;;;;;4943171;29;20200;-85
2022/01/28 08:02:42;;;;;;;95.93;75.88;;;4.60;99.90;;;;;;4943385;29;20172;-84
2022/01/28 08:05:11;;;;;;;95.00;70.93;;;4.60;99.90;;;;;;4941964;29;20216;-84
2022/01/28 08:07:37;;;;;;;106.55;82.50;;;4.60;99.90;;;;;;4943610;29;20168;-84
2022/01/28 08:10:03;;;;;;;113.70;101.90;;;4.60;99.90;;;;;;4942251;29;20233;-85
2022/01/28 08:12:29;;;;;;;99.23;76.00;;;4.60;99.90;;;;;;4941431;29;20165;-84
2022/01/28 08:14:54;;;;;;;97.37;77.57;;;4.60;99.90;;;;;;4941055;29;20432;-84
2022/01/28 08:17:20;;;;;;;91.40;73.27;;;4.60;99.90;;;;;;4942791;29;20404;-84
2022/01/28 08:19:46;;;;;;;96.33;73.60;;;4.70;99.90;;;;;;4942984;29;20656;-84
2022/01/28 08:22:11;;;;;;;103.70;86.17;;;4.70;99.90;;;;;;4941156;29;20236;-84
2022/01/28 08:24:37;;;;;;;100.50;78.10;;;4.70;99.90;;;;;;4940709;29;20212;-84
2022/01/28 08:27:03;;;;;;;95.47;77.80;;;4.70;99.90;;;;;;4941587;29;20403;-84
2022/01/28 08:29:29;;;;;;;107.90;86.32;;;4.80;99.90;;;;;;4939775;29;20164;-84
2022/01/28 08:31:54;;;;;;;104.70;78.23;;;4.80;99.90;;;;;;4939507;29;20264;-85
2022/01/28 08:34:20;;;;;;;93.80;71.03;;;4.80;99.90;;;;;;4940380;29;20192;-84
2022/01/28 08:36:46;;;;;;;95.77;64.43;;;4.80;99.90;;;;;;4941268;29;20191;-84
2022/01/28 08:39:12;;;;;;;93.17;71.60;;;5.00;99.90;;;;;;4940947;29;20253;-84
2022/01/28 08:41:40;;;;;;;101.67;76.77;;;5.00;99.90;;;;;;4941155;29;20208;-84
2022/01/28 08:44:06;;;;;;;92.15;66.75;;;5.10;99.90;;;;;;4940308;29;20449;-84
2022/01/28 08:46:31;;;;;;;94.40;67.67;;;5.20;99.90;;;;;;4940857;29;20177;-84
2022/01/28 08:48:57;;;;;;;98.43;74.73;;;5.30;99.90;;;;;;4940676;29;20191;-85
2022/01/28 08:51:23;;;;;;;94.15;72.32;;;5.40;99.90;;;;;;4939660;29;20249;-85
2022/01/28 08:53:49;;;;;;;90.90;62.90;;;5.50;99.90;;;;;;4941157;29;20172;-84
2022/01/28 08:56:15;;;;;;;93.93;69.33;;;5.60;99.90;;;;;;4940409;29;20932;-84
2022/01/28 08:58:40;;;;;;;100.00;78.47;;;5.70;99.90;;;;;;4940438;29;20412;-84
2022/01/28 09:01:06;;;;;;;99.77;77.23;;;5.70;99.90;;;;;;4941016;29;20703;-84
2022/01/28 09:03:33;;;;;;;101.60;84.53;;;5.70;99.90;;;;;;4938737;29;20540;-84
2022/01/28 09:05:59;;;;;;;99.28;76.20;;;5.90;99.90;;;;;;4941203;29;20271;-84
2022/01/28 09:08:25;;;;;;;91.67;66.97;;;5.90;99.90;;;;;;4941407;29;20204;-84
2022/01/28 09:10:59;;;;;;;97.50;60.22;;;5.90;99.90;;;;;;4938944;29;20415;-85
2022/01/28 09:13:29;;;;;;;98.65;73.65;;;5.90;99.90;;;;;;4937265;29;20172;-85
2022/01/28 09:15:57;;;;;;;101.30;69.97;;;5.90;99.90;;;;;;4938784;29;20180;-84
2022/01/28 09:18:24;;;;;;;92.10;57.08;;;5.90;99.90;;;;;;4937777;29;20176;-84
2022/01/28 09:20:51;;;;;;;87.90;49.83;;;6.00;99.90;;;;;;4938147;29;20219;-85
2022/01/28 09:23:17;;;;;;;98.20;45.30;;;6.00;99.90;;;;;;4937432;29;20164;-85
2022/01/28 09:25:43;;;;;;;86.15;29.70;;;6.00;99.90;;;;;;4935535;29;20196;-85
2022/01/28 09:28:09;;;;;;;77.28;29.40;;;6.10;99.90;;;;;;4935600;29;20176;-84
2022/01/28 09:30:35;;;;;;;80.47;29.80;;;6.10;99.90;;;;;;4937271;29;20168;-85
2022/01/28 09:33:02;;;;;;;83.68;29.35;;;6.10;99.90;;;;;;4938707;29;20876;-85
2022/01/28 09:35:28;;;;;;;79.55;24.17;;;6.10;99.90;;;;;;4939814;29;20191;-84
2022/01/28 09:37:54;;;;;;;81.20;24.90;;;6.20;99.90;;;;;;4939018;29;20161;-84
2022/01/28 09:40:21;;;;;;;81.37;23.73;;;6.20;99.90;;;;;;4939022;29;20971;-83
2022/01/28 09:42:48;;;;;;;80.32;21.95;;;6.20;99.90;;;;;;4939750;29;20168;-85
2022/01/28 09:45:21;;;;;;;78.65;23.60;;;6.20;99.90;;;;;;4939671;29;20196;-85
2022/01/28 09:47:47;;;;;;;84.15;27.23;;;6.10;99.90;;;;;;4941020;29;20214;-84
2022/01/28 09:50:13;;;;;;;91.13;24.48;;;6.00;99.90;;;;;;4941891;29;20204;-84
2022/01/28 09:52:39;;;;;;;77.97;23.90;;;6.00;99.90;;;;;;4939688;29;20172;-85
2022/01/28 09:55:06;;;;;;;90.37;32.60;;;6.00;99.90;;;;;;4941214;29;20185;-85
2022/01/28 09:57:32;;;;;;;79.68;26.10;;;6.10;99.90;;;;;;4941337;29;20319;-85
2022/01/28 09:59:57;;;;;;;93.78;50.15;;;6.10;99.90;;;;;;4941764;29;20553;-85
2022/01/28 10:02:52;;;;;;;94.67;46.47;;;6.20;99.90;;;;;;4942143;29;20169;-84
2022/01/28 10:05:29;;;;;;;85.80;32.72;;;6.30;99.90;;;;;;4941696;29;21023;-85
2022/01/28 10:07:59;;;;;;;83.07;35.20;;;6.40;99.90;;;;;;4942829;29;20167;-85
2022/01/28 10:10:24;;;;;;;90.55;51.10;;;6.40;99.90;;;;;;4942504;29;20255;-85
2022/01/28 10:13:10;;;;;;;89.27;35.30;;;6.40;99.90;;;;;;4940484;29;20203;-85
2022/01/28 10:15:50;;;;;;;79.75;27.52;;;6.60;99.90;;;;;;4940999;29;20211;-85
2022/01/28 10:18:16;;;;;;;81.65;24.48;;;6.60;99.90;;;;;;4941060;29;20156;-85
2022/01/28 10:20:43;;;;;;;78.73;24.27;;;6.60;99.90;;;;;;4940797;29;20247;-85
2022/01/28 10:23:12;;;;;;;88.80;28.35;;;6.60;99.90;;;;;;4939549;29;20591;-84
2022/01/28 10:25:41;;;;;;;85.95;35.28;;;6.60;99.90;;;;;;4939084;29;20271;-84
2022/01/28 10:28:09;;;;;;;89.90;31.08;;;6.50;99.90;;;;;;4940879;29;20161;-85
2022/01/28 10:30:40;;;;;;;84.10;40.80;;;6.60;99.90;;;;;;4940858;29;20172;-84
2022/01/28 10:33:22;;;;;;;89.32;41.88;;;6.60;99.90;;;;;;4940985;29;20231;-84
2022/01/28 10:36:11;;;;;;;84.43;33.38;;;6.70;99.90;;;;;;4940608;29;20192;-85
2022/01/28 10:38:42;;;;;;;85.15;28.15;;;6.70;99.90;;;;;;4940647;29;20219;-85
2022/01/28 10:41:20;;;;;;;87.22;39.60;;;6.70;99.90;;;;;;4940989;29;20340;-84
2022/01/28 10:43:47;;;;;;;86.97;39.50;;;6.70;99.90;;;;;;4940499;29;20561;-84
2022/01/28 10:46:27;;;;;;;88.10;35.63;;;6.70;99.90;;;;;;4939287;29;20267;-85
2022/01/28 10:48:59;;;;;;;87.13;41.17;;;6.70;99.90;;;;;;4940050;29;20157;-84
2022/01/28 10:51:40;;;;;;;89.05;32.63;;;6.70;99.90;;;;;;4940371;29;20300;-85
2022/01/28 10:54:09;;;;;;;88.28;30.52;;;6.80;99.90;;;;;;4939598;29;20252;-85
2022/01/28 10:56:48;;;;;;;84.60;30.80;;;6.90;99.90;;;;;;4939970;29;20623;-84
2022/01/28 10:59:17;;;;;;;85.85;38.88;;;7.00;99.90;;;;;;4940049;29;20179;-85
2022/01/28 11:01:44;;;;;;;88.95;40.13;;;7.10;99.90;;;;;;4940392;29;20286;-84
2022/01/28 11:04:12;;;;;;;76.85;19.50;;;7.20;99.90;;;;;;4943216;29;20157;-84
2022/01/28 11:06:39;;;;;;;80.65;15.27;;;7.30;99.90;;;;;;4941103;29;20175;-85
2022/01/28 11:09:09;;;;;;;74.57;14.25;;;7.20;99.90;;;;;;4939616;29;20294;-85
2022/01/28 11:11:36;;;;;;;85.82;20.17;;;7.20;99.90;;;;;;4940418;29;20152;-85
2022/01/28 11:14:02;;;;;;;78.93;21.88;;;7.30;99.90;;;;;;4939647;29;20597;-85
2022/01/28 11:16:29;;;;;;;87.78;27.23;;;7.40;99.90;;;;;;4939437;29;20247;-84
2022/01/28 11:18:56;;;;;;;78.63;22.27;;;7.50;99.90;;;;;;4940151;29;20173;-85
2022/01/28 11:21:56;;;;;;;75.90;10.73;;;7.50;99.90;;;;;;4942150;29;20212;-85
2022/01/28 11:24:49;;;;;;;76.05;12.65;;;7.50;99.90;;;;;;4942111;29;20200;-85
2022/01/28 11:27:34;;;;;;;76.40;11.73;;;7.50;99.90;;;;;;4938204;29;20181;-85
2022/01/28 11:30:16;;;;;;;79.40;11.18;;;7.50;99.90;;;;;;4941726;29;20192;-84
2022/01/28 11:33:06;;;;;;;73.00;10.10;;;7.60;99.90;;;;;;4940553;29;20540;-85
2022/01/28 11:35:45;;;;;;;75.00;9.05;;;7.60;99.90;;;;;;4941366;29;20215;-86
2022/01/28 11:38:26;;;;;;;78.35;16.70;;;7.70;99.90;;;;;;4942032;29;20216;-85
2022/01/28 11:41:05;;;;;;;76.45;27.27;;;7.70;99.90;;;;;;4941986;29;20608;-84
2022/01/28 11:43:42;;;;;;;88.15;36.78;;;7.60;99.90;;;;;;4943975;29;20163;-85
2022/01/28 11:46:16;;;;;;;85.88;34.05;;;7.60;99.90;;;;;;4941077;29;20212;-85
2022/01/28 11:49:02;;;;;;;84.68;34.72;;;7.60;99.90;;;;;;4941883;29;20171;-85
2022/01/28 11:51:36;;;;;;;83.60;28.40;;;7.60;99.90;;;;;;4941455;29;20149;-85
2022/01/28 11:54:14;;;;;;;87.50;25.10;;;7.60;99.90;;;;;;4940497;29;20219;-86
2022/01/28 11:57:02;;;;;;;84.40;28.70;;;7.70;99.90;;;;;;4941831;29;20175;-84
2022/01/28 11:59:29;;;;;;;94.93;34.30;;;7.80;99.90;;;;;;4936777;29;20190;-85
2022/01/28 12:01:54;;;;;;;83.85;41.25;;;7.80;99.90;;;;;;4938931;29;20200;-84
2022/01/28 12:04:27;;;;;;;76.50;24.77;;;7.80;99.90;;;;;;4936538;29;20185;-84
2022/01/28 12:07:03;;;;;;;76.35;16.50;;;7.80;99.90;;;;;;4936562;29;20169;-84
2022/01/28 12:09:30;;;;;;;78.35;12.68;;;7.80;99.90;;;;;;4936624;29;20164;-84
2022/01/28 12:11:58;;;;;;;80.45;11.13;;;7.70;99.90;;;;;;4936293;29;20180;-84
2022/01/28 12:14:48;;;;;;;80.00;10.80;;;7.60;99.90;;;;;;4937570;29;20694;-84
2022/01/28 12:17:29;;;;;;;77.15;11.00;;;7.60;99.90;;;;;;4938412;29;20168;-84
2022/01/28 12:20:14;;;;;;;82.65;12.30;;;7.60;99.90;;;;;;4938841;29;20574;-84
2022/01/28 12:22:59;;;;;;;76.38;16.50;;;7.70;99.90;;;;;;4942287;29;20247;-84
2022/01/28 12:25:36;;;;;;;84.13;23.08;;;7.80;99.90;;;;;;4941320;29;20202;-85
2022/01/28 12:28:14;;;;;;;77.07;12.52;;;7.80;99.90;;;;;;4938487;29;20187;-85
2022/01/28 12:30:43;;;;;;;79.05;11.25;;;7.90;99.90;;;;;;4937406;29;20168;-85
2022/01/28 12:33:13;;;;;;;77.85;12.88;;;8.00;97.00;;;;;;4939525;29;20175;-85
2022/01/28 12:35:40;;;;;;;79.43;12.90;;;8.00;95.20;;;;;;4940648;29;20267;-85
2022/01/28 12:38:07;;;;;;;71.70;12.98;;;8.00;92.10;;;;;;4941030;29;20160;-85
2022/01/28 12:40:36;;;;;;;72.40;15.98;;;7.90;95.10;;;;;;4939906;29;20203;-85
2022/01/28 12:43:06;;;;;;;73.07;15.88;;;8.00;95.00;;;;;;4938823;29;20645;-85
2022/01/28 12:45:33;;;;;;;72.45;14.40;;;7.90;90.50;;;;;;4939631;29;20200;-86
2022/01/28 12:47:59;;;;;;;77.32;15.77;;;7.80;89.30;;;;;;4939450;29;20517;-86
2022/01/28 12:50:27;;;;;;;77.28;14.55;;;7.80;94.00;;;;;;4939177;29;20188;-86
2022/01/28 12:53:11;;;;;;;72.38;11.55;;;7.80;89.90;;;;;;4940742;29;20263;-86
2022/01/28 12:55:37;;;;;;;77.13;12.35;;;7.70;93.50;;;;;;4940012;29;20283;-86
2022/01/28 12:58:10;;;;;;;79.13;15.90;;;7.60;92.30;;;;;;4939089;29;20239;-86
2022/01/28 13:00:36;;;;;;;73.47;13.65;;;7.50;90.00;;;;;;4938396;29;20264;-86
2022/01/28 13:03:01;;;;;;;70.60;11.67;;;7.40;93.00;;;;;;4940182;29;20621;-86
2022/01/28 13:05:37;;;;;;;71.30;12.30;;;7.40;98.00;;;;;;4938538;29;20199;-86
2022/01/28 13:10:50;;;;;;;76.32;11.52;;;7.40;99.90;;;;;;4940510;29;20208;-86
2022/01/28 13:13:21;;;;;;;76.10;10.43;;;7.50;99.90;;;;;;4940207;29;20168;-86
2022/01/28 13:15:54;;;;;;;74.68;14.80;;;7.40;98.50;;;;;;4940761;29;20202;-86
2022/01/28 13:18:20;;;;;;;76.45;13.43;;;7.40;97.20;;;;;;4944360;29;20148;-85
2022/01/28 13:20:54;;;;;;;70.63;11.47;;;7.30;97.00;;;;;;4943535;29;20726;-85
2022/01/28 13:23:20;;;;;;;69.80;7.88;;;7.40;98.10;;;;;;4945010;29;20157;-86
2022/01/28 13:26:09;;;;;;;70.43;10.10;;;7.40;99.00;;;;;;4942276;29;20180;-85
2022/01/28 13:28:34;;;;;;;76.35;9.45;;;7.30;96.40;;;;;;4941933;29;20381;-85
2022/01/28 13:31:00;;;;;;;76.30;10.53;;;7.20;97.70;;;;;;4942132;29;20171;-84
2022/01/28 13:33:29;;;;;;;74.27;10.87;;;7.20;98.60;;;;;;4942235;29;20175;-85
2022/01/28 13:35:59;;;;;;;81.28;12.25;;;7.20;98.50;;;;;;4942071;29;20560;-85
2022/01/28 13:38:38;;;;;;;72.40;12.70;;;7.30;99.90;;;;;;4942641;29;20181;-85
2022/01/28 13:41:21;;;;;;;82.93;11.77;;;7.40;99.90;;;;;;4942204;29;20271;-85
2022/01/28 13:43:51;;;;;;;71.55;12.15;;;7.50;99.90;;;;;;4942673;29;20172;-85
2022/01/28 13:46:23;;;;;;;75.10;12.60;;;7.60;99.10;;;;;;4958150;23;20248;-86
2022/01/28 13:48:55;;;;;;;76.78;10.00;;;7.70;96.80;;;;;;4947349;29;20573;-86
2022/01/28 13:51:33;;;;;;;73.93;12.13;;;7.80;97.10;;;;;;4944718;29;20181;-86
2022/01/28 13:57:08;;;;;;;;;;;;;;;;;;;;;
2022/01/28 14:00:02;;;;;;;75.47;14.98;;;8.20;95.50;;;;;;4926819;29;20252;-85
2022/01/28 14:02:28;;;;;;;75.75;19.70;;;8.10;97.30;;;;;;4926981;29;20196;-87
2022/01/28 14:05:24;;;;;;;78.95;17.75;;;8.00;94.00;;;;;;4928235;29;20193;-88
2022/01/28 14:08:11;;;;;;;71.50;16.90;;;8.00;97.00;;;;;;4893301;29;20539;-87
2022/01/28 14:11:11;;;;;;;77.53;18.40;;;7.90;96.60;;;;;;4907972;29;20264;-86
2022/01/28 14:14:17;;;;;;;89.80;13.20;;;7.80;95.60;;;;;;4906864;29;20226;-86
2022/01/28 14:16:57;;;;;;;74.78;10.77;;;7.80;99.90;;;;;;4876808;29;20265;-85
2022/01/28 14:19:25;;;;;;;81.00;11.40;;;8.00;99.90;;;;;;4915221;29;20249;-86
2022/01/28 14:22:14;;;;;;;76.57;12.95;;;8.00;99.90;;;;;;4926561;29;20288;-85
2022/01/28 14:24:49;;;;;;;74.53;15.45;;;8.10;99.90;;;;;;4926686;29;20220;-85